createdAt,value
2018-12-19T00:00:51.968Z,1000.64
2018-12-19T00:01:51.948Z,1000.65
2018-12-19T00:02:51.943Z,1000.67
2018-12-19T00:03:51.944Z,1000.67
2018-12-19T00:04:51.925Z,1000.63
2018-12-19T00:05:51.912Z,1000.61
2018-12-19T00:06:51.905Z,1000.54
2018-12-19T00:07:51.880Z,1000.51
2018-12-19T00:08:51.872Z,1000.57
2018-12-19T00:09:51.865Z,1000.44
2018-12-19T00:10:51.857Z,1000.54
2018-12-19T00:11:51.850Z,1000.51
2018-12-19T00:12:51.823Z,1000.49
2018-12-19T00:13:51.840Z,1000.50
2018-12-19T00:14:51.808Z,1000.49
2018-12-19T00:15:51.832Z,1000.48
2018-12-19T00:16:51.776Z,1000.52
2018-12-19T00:17:51.764Z,1000.50
2018-12-19T00:18:51.764Z,1000.53
2018-12-19T00:19:51.748Z,1000.48
2018-12-19T00:20:51.747Z,1000.47
2018-12-19T00:21:51.768Z,1000.43
2018-12-19T00:22:51.712Z,1000.33
2018-12-19T00:23:51.696Z,1000.33
2018-12-19T00:24:51.688Z,1000.32
2018-12-19T00:25:51.676Z,1000.27
2018-12-19T00:26:51.672Z,1000.21
2018-12-19T00:27:51.668Z,1000.22
2018-12-19T00:28:51.643Z,1000.26
2018-12-19T00:29:51.631Z,1000.12
2018-12-19T00:30:51.619Z,1000.10
2018-12-19T00:31:51.615Z,1000.16
2018-12-19T00:32:51.602Z,1000.12
2018-12-19T00:33:51.620Z,1000.13
2018-12-19T00:34:51.575Z,1000.12
2018-12-19T00:35:51.568Z,1000.06
2018-12-19T00:36:51.552Z,1000.04
2018-12-19T00:37:51.539Z,1000.03
2018-12-19T00:38:51.547Z,1000.02
2018-12-19T00:39:51.527Z,999.98
2018-12-19T00:40:51.511Z,1000.02
2018-12-19T00:41:51.509Z,999.96
2018-12-19T00:42:51.488Z,999.96
2018-12-19T00:43:51.485Z,999.98
2018-12-19T00:44:51.481Z,999.97
2018-12-19T00:45:51.452Z,999.97
2018-12-19T00:46:51.453Z,1000.00
2018-12-19T00:47:51.432Z,999.97
2018-12-19T00:48:51.430Z,999.91
2018-12-19T00:49:51.432Z,999.86
2018-12-19T00:50:51.416Z,999.89
2018-12-19T00:51:51.384Z,999.87
2018-12-19T00:52:51.388Z,999.93
2018-12-19T00:53:51.364Z,999.85
2018-12-19T00:54:51.360Z,999.89
2018-12-19T00:55:51.364Z,999.93
2018-12-19T00:56:51.348Z,999.88
2018-12-19T00:57:51.315Z,999.89
2018-12-19T00:58:51.335Z,999.88
2018-12-19T00:59:51.307Z,999.94
2018-12-19T01:00:51.284Z,999.90
2018-12-19T01:01:51.278Z,999.87
2018-12-19T01:02:51.280Z,999.83
2018-12-19T01:03:52.083Z,999.83
2018-12-19T01:04:51.268Z,999.85
2018-12-19T01:05:51.228Z,999.80
2018-12-19T01:06:51.224Z,999.85
2018-12-19T01:07:51.224Z,999.86
2018-12-19T01:08:51.224Z,999.92
2018-12-19T01:09:51.216Z,999.87
2018-12-19T01:10:51.172Z,999.89
2018-12-19T01:11:51.164Z,999.84
2018-12-19T01:12:51.156Z,999.91
2018-12-19T01:13:51.152Z,999.92
2018-12-19T01:14:51.124Z,999.88
2018-12-19T01:15:51.137Z,999.85
2018-12-19T01:16:51.112Z,999.88
2018-12-19T01:17:51.099Z,999.94
2018-12-19T01:18:51.088Z,999.91
2018-12-19T01:19:51.104Z,999.93
2018-12-19T01:20:51.064Z,999.92
2018-12-19T01:21:51.056Z,999.91
2018-12-19T01:22:51.036Z,999.92
2018-12-19T01:23:51.024Z,999.93
2018-12-19T01:24:51.024Z,999.97
2018-12-19T01:25:51.020Z,1000.01
2018-12-19T01:26:50.996Z,1000.05
2018-12-19T01:27:50.985Z,1000.04
2018-12-19T01:28:50.988Z,1000.04
2018-12-19T01:29:50.968Z,1000.05
2018-12-19T01:30:50.972Z,1000.15
2018-12-19T01:31:50.956Z,1000.10
2018-12-19T01:32:50.932Z,1000.10
2018-12-19T01:33:50.925Z,1000.17
2018-12-19T01:34:50.908Z,1000.19
2018-12-19T01:35:50.917Z,1000.15
2018-12-19T01:36:50.900Z,1000.22
2018-12-19T01:37:50.872Z,1000.22
2018-12-19T01:38:50.858Z,1000.21
2018-12-19T01:39:50.856Z,1000.20
2018-12-19T01:40:50.848Z,1000.16
2018-12-19T01:41:50.826Z,1000.20
2018-12-19T01:42:50.840Z,1000.05
2018-12-19T01:43:50.800Z,999.95
2018-12-19T01:44:50.796Z,999.91
2018-12-19T01:45:50.790Z,999.83
2018-12-19T01:46:50.792Z,999.87
2018-12-19T01:47:50.756Z,999.82
2018-12-19T01:48:50.764Z,999.84
2018-12-19T01:49:50.740Z,999.78
2018-12-19T01:50:50.731Z,999.78
2018-12-19T01:51:50.712Z,999.74
2018-12-19T01:52:50.709Z,999.69
2018-12-19T01:53:50.692Z,999.70
2018-12-19T01:54:50.696Z,999.71
2018-12-19T01:55:50.672Z,999.66
2018-12-19T01:56:50.664Z,999.64
2018-12-19T01:57:50.648Z,999.64
2018-12-19T01:58:50.640Z,999.61
2018-12-19T01:59:50.632Z,999.64
2018-12-19T02:00:50.631Z,999.60
2018-12-19T02:01:50.607Z,999.59
2018-12-19T02:02:50.620Z,999.53
2018-12-19T02:03:50.586Z,999.53
2018-12-19T02:04:50.584Z,999.48
2018-12-19T02:05:50.556Z,999.50
2018-12-19T02:06:50.584Z,999.52
2018-12-19T02:07:50.536Z,999.53
2018-12-19T02:08:50.520Z,999.49
2018-12-19T02:09:50.524Z,999.50
2018-12-19T02:10:50.504Z,999.46
2018-12-19T02:11:50.487Z,999.45
2018-12-19T02:12:50.492Z,999.38
2018-12-19T02:13:50.464Z,999.31
2018-12-19T02:14:50.456Z,999.36
2018-12-19T02:15:50.443Z,999.37
2018-12-19T02:16:50.432Z,999.36
2018-12-19T02:17:50.437Z,999.40
2018-12-19T02:18:50.424Z,999.53
2018-12-19T02:19:50.399Z,999.44
2018-12-19T02:20:50.391Z,999.45
2018-12-19T02:21:50.384Z,999.48
2018-12-19T02:22:50.363Z,999.43
2018-12-19T02:23:50.359Z,999.32
2018-12-19T02:24:50.367Z,999.37
2018-12-19T02:25:50.331Z,999.44
2018-12-19T02:26:50.339Z,999.36
2018-12-19T02:27:50.308Z,999.34
2018-12-19T02:28:50.295Z,999.34
2018-12-19T02:29:50.291Z,999.38
2018-12-19T02:30:50.287Z,999.28
2018-12-19T02:31:50.268Z,999.34
2018-12-19T02:32:50.251Z,999.33
2018-12-19T02:33:50.247Z,999.38
2018-12-19T02:34:50.233Z,999.33
2018-12-19T02:35:50.223Z,999.31
2018-12-19T02:36:50.232Z,999.29
2018-12-19T02:37:50.195Z,999.31
2018-12-19T02:38:50.183Z,999.31
2018-12-19T02:39:50.195Z,999.29
2018-12-19T02:40:50.163Z,999.34
2018-12-19T02:41:50.151Z,999.34
2018-12-19T02:42:50.155Z,999.38
2018-12-19T02:43:50.131Z,999.39
2018-12-19T02:44:50.118Z,999.30
2018-12-19T02:45:50.111Z,999.29
2018-12-19T02:46:50.111Z,999.38
2018-12-19T02:47:50.087Z,999.36
2018-12-19T02:48:50.071Z,999.35
2018-12-19T02:49:50.062Z,999.44
2018-12-19T02:50:50.050Z,999.44
2018-12-19T02:51:50.046Z,999.44
2018-12-19T02:52:50.043Z,999.48
2018-12-19T02:53:50.022Z,999.54
2018-12-19T02:54:50.008Z,999.56
2018-12-19T02:55:49.994Z,999.65
2018-12-19T02:56:49.982Z,999.64
2018-12-19T02:57:49.991Z,999.64
2018-12-19T02:58:49.979Z,999.67
2018-12-19T02:59:49.950Z,999.64
2018-12-19T03:00:49.938Z,999.70
2018-12-19T03:01:49.926Z,999.61
2018-12-19T03:02:49.914Z,999.60
2018-12-19T03:03:49.918Z,999.58
2018-12-19T03:04:49.914Z,999.63
2018-12-19T03:05:49.883Z,999.61
2018-12-19T03:06:49.871Z,999.58
2018-12-19T03:07:49.863Z,999.63
2018-12-19T03:08:49.846Z,999.63
2018-12-19T03:09:49.843Z,999.65
2018-12-19T03:10:49.851Z,999.60
2018-12-19T03:11:49.814Z,999.61
2018-12-19T03:12:49.806Z,999.64
2018-12-19T03:13:49.796Z,999.67
2018-12-19T03:14:49.789Z,999.57
2018-12-19T03:15:49.802Z,999.59
2018-12-19T03:16:49.763Z,999.62
2018-12-19T03:17:49.750Z,999.65
2018-12-19T03:18:49.738Z,999.67
2018-12-19T03:19:49.726Z,999.64
2018-12-19T03:20:49.717Z,999.61
2018-12-19T03:21:56.766Z,999.63
2018-12-19T03:22:49.698Z,999.61
2018-12-19T03:23:49.690Z,999.62
2018-12-19T03:24:49.674Z,999.62
2018-12-19T03:25:49.659Z,999.58
2018-12-19T03:26:49.670Z,999.56
2018-12-19T03:27:49.643Z,999.53
2018-12-19T03:28:49.626Z,999.43
2018-12-19T03:29:49.614Z,999.48
2018-12-19T03:30:49.607Z,999.37
2018-12-19T03:31:49.595Z,999.37
2018-12-19T03:32:49.615Z,999.40
2018-12-19T03:33:49.579Z,999.37
2018-12-19T03:34:49.586Z,999.45
2018-12-19T03:35:49.550Z,999.48
2018-12-19T03:36:49.539Z,999.47
2018-12-19T03:37:49.562Z,999.46
2018-12-19T03:38:49.531Z,999.44
2018-12-19T03:39:50.354Z,999.45
2018-12-19T03:40:49.517Z,999.41
2018-12-19T03:41:49.482Z,999.39
2018-12-19T03:42:49.479Z,999.40
2018-12-19T03:43:49.478Z,999.36
2018-12-19T03:44:49.478Z,999.33
2018-12-19T03:45:49.438Z,999.29
2018-12-19T03:46:49.447Z,999.27
2018-12-19T03:47:49.422Z,999.34
2018-12-19T03:48:49.407Z,999.40
2018-12-19T03:49:49.410Z,999.36
2018-12-19T03:50:49.383Z,999.39
2018-12-19T03:51:49.370Z,999.45
2018-12-19T03:52:49.374Z,999.49
2018-12-19T03:53:49.346Z,999.54
2018-12-19T03:54:49.335Z,999.50
2018-12-19T03:55:49.338Z,999.53
2018-12-19T03:56:49.353Z,999.46
2018-12-19T03:57:49.302Z,999.51
2018-12-19T03:58:49.322Z,999.52
2018-12-19T03:59:49.292Z,999.45
2018-12-19T04:00:49.278Z,999.43
2018-12-19T04:01:49.270Z,999.43
2018-12-19T04:02:49.262Z,999.55
2018-12-19T04:03:49.242Z,999.58
2018-12-19T04:04:49.230Z,999.60
2018-12-19T04:05:49.243Z,999.53
2018-12-19T04:06:49.215Z,999.50
2018-12-19T04:07:49.194Z,999.51
2018-12-19T04:08:49.186Z,999.44
2018-12-19T04:09:49.192Z,999.45
2018-12-19T04:10:49.222Z,999.44
2018-12-19T04:11:49.150Z,999.41
2018-12-19T04:12:49.139Z,999.42
2018-12-19T04:13:49.135Z,999.36
2018-12-19T04:14:49.138Z,999.40
2018-12-19T04:15:49.132Z,999.35
2018-12-19T04:16:49.130Z,999.39
2018-12-19T04:17:49.083Z,999.41
2018-12-19T04:18:49.071Z,999.41
2018-12-19T04:19:49.059Z,999.31
2018-12-19T04:20:49.046Z,999.32
2018-12-19T04:21:49.044Z,999.30
2018-12-19T04:22:49.027Z,999.24
2018-12-19T04:23:49.028Z,999.20
2018-12-19T04:24:49.003Z,999.09
2018-12-19T04:25:48.992Z,999.13
2018-12-19T04:26:49.003Z,999.04
2018-12-19T04:27:48.983Z,998.97
2018-12-19T04:28:48.967Z,999.03
2018-12-19T04:29:48.955Z,998.96
2018-12-19T04:30:48.952Z,998.99
2018-12-19T04:31:48.923Z,998.94
2018-12-19T04:32:48.935Z,998.95
2018-12-19T04:33:48.903Z,998.92
2018-12-19T04:34:48.891Z,998.88
2018-12-19T04:35:48.879Z,998.86
2018-12-19T04:36:48.899Z,998.88
2018-12-19T04:37:48.851Z,998.85
2018-12-19T04:38:48.872Z,998.81
2018-12-19T04:39:48.833Z,998.87
2018-12-19T04:40:48.829Z,998.87
2018-12-19T04:41:48.812Z,998.91
2018-12-19T04:42:48.812Z,998.91
2018-12-19T04:43:48.851Z,998.90
2018-12-19T04:44:48.797Z,998.92
2018-12-19T04:45:48.779Z,998.85
2018-12-19T04:46:48.755Z,998.84
2018-12-19T04:47:48.750Z,998.87
2018-12-19T04:48:48.748Z,998.90
2018-12-19T04:49:48.723Z,998.84
2018-12-19T04:50:48.731Z,998.86
2018-12-19T04:51:48.700Z,998.87
2018-12-19T04:52:48.691Z,998.94
2018-12-19T04:53:48.722Z,998.89
2018-12-19T04:54:48.670Z,998.93
2018-12-19T04:55:48.655Z,998.85
2018-12-19T04:56:48.663Z,998.84
2018-12-19T04:57:48.635Z,998.84
2018-12-19T04:58:48.624Z,998.89
2018-12-19T04:59:48.621Z,998.92
2018-12-19T05:00:48.599Z,998.90
2018-12-19T05:01:48.589Z,998.91
2018-12-19T05:02:48.604Z,998.93
2018-12-19T05:03:48.578Z,998.88
2018-12-19T05:04:48.567Z,998.86
2018-12-19T05:05:48.550Z,998.81
2018-12-19T05:06:48.536Z,998.84
2018-12-19T05:07:48.565Z,998.86
2018-12-19T05:08:48.536Z,998.91
2018-12-19T05:09:48.535Z,998.87
2018-12-19T05:10:48.488Z,998.91
2018-12-19T05:11:48.479Z,998.85
2018-12-19T05:12:48.503Z,998.84
2018-12-19T05:13:48.455Z,998.81
2018-12-19T05:14:48.468Z,998.82
2018-12-19T05:15:48.434Z,998.89
2018-12-19T05:16:48.419Z,998.82
2018-12-19T05:17:48.431Z,998.87
2018-12-19T05:18:48.427Z,998.83
2018-12-19T05:19:48.413Z,998.83
2018-12-19T05:20:48.379Z,998.81
2018-12-19T05:21:48.364Z,998.77
2018-12-19T05:22:48.386Z,998.78
2018-12-19T05:23:48.345Z,998.82
2018-12-19T05:24:48.331Z,998.83
2018-12-19T05:25:48.350Z,998.82
2018-12-19T05:26:48.326Z,998.83
2018-12-19T05:27:48.295Z,998.89
2018-12-19T05:28:48.287Z,998.86
2018-12-19T05:29:48.303Z,998.88
2018-12-19T05:30:48.268Z,998.87
2018-12-19T05:31:48.272Z,998.86
2018-12-19T05:32:48.408Z,998.93
2018-12-19T05:33:48.228Z,998.92
2018-12-19T05:34:48.228Z,998.97
2018-12-19T05:35:48.205Z,998.95
2018-12-19T05:36:48.204Z,998.95
2018-12-19T05:37:48.214Z,998.95
2018-12-19T05:38:48.172Z,998.97
2018-12-19T05:39:48.164Z,998.99
2018-12-19T05:40:48.200Z,998.96
2018-12-19T05:41:48.144Z,998.94
2018-12-19T05:42:48.204Z,998.99
2018-12-19T05:43:48.148Z,998.98
2018-12-19T05:44:48.124Z,999.00
2018-12-19T05:45:48.100Z,998.98
2018-12-19T05:46:48.093Z,998.98
2018-12-19T05:47:48.086Z,998.97
2018-12-19T05:48:48.123Z,998.99
2018-12-19T05:49:48.052Z,999.02
2018-12-19T05:50:48.049Z,999.06
2018-12-19T05:51:48.032Z,999.08
2018-12-19T05:52:48.016Z,999.11
2018-12-19T05:53:48.001Z,999.10
2018-12-19T05:54:48.024Z,999.08
2018-12-19T05:55:47.984Z,999.11
2018-12-19T05:56:47.980Z,999.09
2018-12-19T05:57:47.968Z,999.11
2018-12-19T05:58:47.951Z,999.11
2018-12-19T05:59:47.957Z,999.07
2018-12-19T06:00:47.952Z,999.19
2018-12-19T06:01:47.915Z,999.20
2018-12-19T06:02:47.939Z,999.19
2018-12-19T06:03:47.894Z,999.18
2018-12-19T06:04:47.887Z,999.16
2018-12-19T06:05:47.887Z,999.17
2018-12-19T06:06:47.872Z,999.15
2018-12-19T06:07:47.852Z,999.11
2018-12-19T06:08:47.835Z,999.15
2018-12-19T06:09:47.847Z,999.21
2018-12-19T06:10:47.832Z,999.15
2018-12-19T06:11:47.803Z,999.27
2018-12-19T06:12:47.816Z,999.21
2018-12-19T06:13:47.787Z,999.25
2018-12-19T06:14:47.767Z,999.21
2018-12-19T06:15:47.767Z,999.18
2018-12-19T06:16:47.747Z,999.19
2018-12-19T06:17:47.734Z,999.23
2018-12-19T06:18:47.767Z,999.20
2018-12-19T06:19:47.715Z,999.16
2018-12-19T06:20:47.705Z,999.21
2018-12-19T06:21:47.703Z,999.27
2018-12-19T06:22:47.678Z,999.34
2018-12-19T06:23:47.667Z,999.33
2018-12-19T06:24:47.674Z,999.32
2018-12-19T06:25:47.666Z,999.29
2018-12-19T06:26:47.634Z,999.33
2018-12-19T06:27:47.622Z,999.34
2018-12-19T06:28:47.630Z,999.41
2018-12-19T06:29:47.603Z,999.38
2018-12-19T06:30:47.614Z,999.31
2018-12-19T06:31:47.577Z,999.41
2018-12-19T06:32:47.566Z,999.37
2018-12-19T06:33:47.598Z,999.36
2018-12-19T06:34:47.558Z,999.32
2018-12-19T06:35:47.534Z,999.35
2018-12-19T06:36:47.542Z,999.38
2018-12-19T06:37:47.526Z,999.37
2018-12-19T06:38:47.503Z,999.32
2018-12-19T06:39:47.490Z,999.30
2018-12-19T06:40:47.483Z,999.28
2018-12-19T06:41:47.470Z,999.26
2018-12-19T06:42:47.507Z,999.22
2018-12-19T06:43:47.442Z,999.17
2018-12-19T06:44:47.435Z,999.24
2018-12-19T06:45:47.434Z,999.25
2018-12-19T06:46:47.435Z,999.34
2018-12-19T06:47:47.422Z,999.29
2018-12-19T06:48:47.403Z,999.25
2018-12-19T06:49:47.382Z,999.31
2018-12-19T06:50:47.363Z,999.33
2018-12-19T06:51:47.354Z,999.31
2018-12-19T06:52:47.350Z,999.30
2018-12-19T06:53:47.343Z,999.32
2018-12-19T06:54:47.342Z,999.44
2018-12-19T06:55:47.310Z,999.41
2018-12-19T06:56:47.294Z,999.43
2018-12-19T06:57:47.287Z,999.46
2018-12-19T06:58:47.274Z,999.38
2018-12-19T06:59:47.282Z,999.38
2018-12-19T07:00:47.279Z,999.45
2018-12-19T07:01:47.242Z,999.48
2018-12-19T07:02:47.231Z,999.42
2018-12-19T07:03:47.219Z,999.42
2018-12-19T07:04:47.206Z,999.39
2018-12-19T07:05:47.227Z,999.40
2018-12-19T07:06:47.210Z,999.41
2018-12-19T07:07:47.174Z,999.36
2018-12-19T07:08:47.165Z,999.46
2018-12-19T07:09:47.154Z,999.44
2018-12-19T07:10:47.151Z,999.43
2018-12-19T07:11:47.130Z,999.46
2018-12-19T07:12:47.166Z,999.45
2018-12-19T07:13:47.106Z,999.49
2018-12-19T07:14:47.096Z,999.48
2018-12-19T07:15:47.086Z,999.53
2018-12-19T07:16:47.073Z,999.52
2018-12-19T07:17:47.063Z,999.53
2018-12-19T07:18:47.070Z,999.48
2018-12-19T07:19:47.078Z,999.47
2018-12-19T07:20:47.027Z,999.47
2018-12-19T07:21:47.015Z,999.52
2018-12-19T07:22:47.006Z,999.42
2018-12-19T07:23:47.002Z,999.48
2018-12-19T07:24:46.994Z,999.46
2018-12-19T07:25:46.974Z,999.44
2018-12-19T07:26:46.960Z,999.47
2018-12-19T07:27:46.950Z,999.48
2018-12-19T07:28:46.944Z,999.49
2018-12-19T07:29:46.970Z,999.53
2018-12-19T07:30:46.918Z,999.51
2018-12-19T07:31:46.905Z,999.55
2018-12-19T07:32:46.894Z,999.60
2018-12-19T07:33:46.886Z,999.55
2018-12-19T07:34:46.870Z,999.62
2018-12-19T07:35:46.874Z,999.66
2018-12-19T07:36:46.886Z,999.65
2018-12-19T07:37:46.835Z,999.67
2018-12-19T07:38:46.822Z,999.69
2018-12-19T07:39:46.814Z,999.71
2018-12-19T07:40:46.802Z,999.62
2018-12-19T07:41:46.813Z,999.66
2018-12-19T07:42:46.777Z,999.66
2018-12-19T07:43:46.778Z,999.62
2018-12-19T07:44:46.754Z,999.67
2018-12-19T07:45:46.747Z,999.63
2018-12-19T07:46:46.734Z,999.61
2018-12-19T07:47:46.741Z,999.67
2018-12-19T07:48:46.715Z,999.67
2018-12-19T07:49:46.707Z,999.68
2018-12-19T07:50:46.718Z,999.74
2018-12-19T07:51:46.678Z,999.71
2018-12-19T07:52:46.666Z,999.70
2018-12-19T07:53:46.678Z,999.74
2018-12-19T07:54:46.650Z,999.75
2018-12-19T07:55:46.631Z,999.74
2018-12-19T07:56:46.658Z,999.73
2018-12-19T07:57:46.610Z,999.75
2018-12-19T07:58:46.602Z,999.71
2018-12-19T07:59:46.602Z,999.74
2018-12-19T08:00:46.578Z,999.69
2018-12-19T08:01:46.578Z,999.71
2018-12-19T08:02:46.554Z,999.70
2018-12-19T08:03:46.542Z,999.75
2018-12-19T08:04:46.530Z,999.71
2018-12-19T08:05:46.554Z,999.71
2018-12-19T08:06:46.510Z,999.74
2018-12-19T08:07:46.498Z,999.72
2018-12-19T08:08:46.486Z,999.77
2018-12-19T08:09:46.470Z,999.79
2018-12-19T08:10:52.024Z,999.77
2018-12-19T08:11:47.478Z,999.79
2018-12-19T08:12:46.478Z,999.81
2018-12-19T08:13:46.434Z,999.86
2018-12-19T08:14:46.419Z,999.89
2018-12-19T08:15:46.406Z,999.81
2018-12-19T08:16:46.394Z,999.86
2018-12-19T08:17:46.418Z,999.86
2018-12-19T08:18:46.377Z,999.88
2018-12-19T08:19:46.370Z,999.86
2018-12-19T08:20:46.351Z,999.88
2018-12-19T08:21:46.338Z,999.85
2018-12-19T08:22:46.330Z,999.92
2018-12-19T08:23:46.333Z,999.97
2018-12-19T08:24:46.305Z,999.98
2018-12-19T08:25:46.301Z,999.98
2018-12-19T08:26:46.289Z,999.98
2018-12-19T08:27:46.266Z,1000.03
2018-12-19T08:28:46.273Z,1000.05
2018-12-19T08:29:46.262Z,1000.04
2018-12-19T08:30:46.298Z,1000.11
2018-12-19T08:31:46.225Z,1000.09
2018-12-19T08:32:46.213Z,1000.08
2018-12-19T08:33:46.247Z,1000.12
2018-12-19T08:34:46.217Z,1000.09
2018-12-19T08:35:46.198Z,1000.11
2018-12-19T08:36:46.169Z,1000.16
2018-12-19T08:37:46.161Z,1000.18
2018-12-19T08:38:46.145Z,1000.16
2018-12-19T08:39:46.137Z,1000.23
2018-12-19T08:40:46.145Z,1000.17
2018-12-19T08:41:46.114Z,1000.19
2018-12-19T08:42:46.101Z,1000.25
2018-12-19T08:43:46.090Z,1000.25
2018-12-19T08:44:46.081Z,1000.23
2018-12-19T08:45:46.072Z,1000.26
2018-12-19T08:46:46.101Z,1000.28
2018-12-19T08:47:46.049Z,1000.25
2018-12-19T08:48:46.030Z,1000.26
2018-12-19T08:49:46.026Z,1000.29
2018-12-19T08:50:46.010Z,1000.29
2018-12-19T08:51:46.013Z,1000.32
2018-12-19T08:52:45.991Z,1000.33
2018-12-19T08:53:45.981Z,1000.32
2018-12-19T08:54:46.035Z,1000.37
2018-12-19T08:55:45.954Z,1000.33
2018-12-19T08:56:45.945Z,1000.37
2018-12-19T08:57:45.946Z,1000.40
2018-12-19T08:58:45.923Z,1000.34
2018-12-19T08:59:45.918Z,1000.38
2018-12-19T09:00:45.901Z,1000.41
2018-12-19T09:01:45.894Z,1000.41
2018-12-19T09:02:45.881Z,1000.47
2018-12-19T09:03:45.881Z,1000.47
2018-12-19T09:04:45.854Z,1000.44
2018-12-19T09:05:45.842Z,1000.48
2018-12-19T09:06:45.833Z,1000.44
2018-12-19T09:07:45.824Z,1000.49
2018-12-19T09:08:52.873Z,1000.50
2018-12-19T09:09:45.801Z,1000.55
2018-12-19T09:10:45.785Z,1000.53
2018-12-19T09:11:45.769Z,1000.53
2018-12-19T09:12:45.765Z,1000.54
2018-12-19T09:13:45.753Z,1000.54
2018-12-19T09:14:45.986Z,1000.50
2018-12-19T09:15:45.733Z,1000.52
2018-12-19T09:16:45.718Z,1000.47
2018-12-19T09:17:46.065Z,1000.49
2018-12-19T09:18:45.693Z,1000.52
2018-12-19T09:19:45.686Z,1000.53
2018-12-19T09:20:45.687Z,1000.48
2018-12-19T09:21:45.666Z,1000.58
2018-12-19T09:22:45.646Z,1000.51
2018-12-19T09:23:45.642Z,1000.53
2018-12-19T09:24:45.626Z,1000.53
2018-12-19T09:25:45.634Z,1000.58
2018-12-19T09:26:45.602Z,1000.60
2018-12-19T09:27:45.595Z,1000.56
2018-12-19T09:28:45.586Z,1000.56
2018-12-19T09:29:45.570Z,1000.62
2018-12-19T09:30:45.583Z,1000.67
2018-12-19T09:31:45.567Z,1000.65
2018-12-19T09:32:45.538Z,1000.66
2018-12-19T09:33:45.528Z,1000.68
2018-12-19T09:34:45.514Z,1000.66
2018-12-19T09:35:45.501Z,1000.67
2018-12-19T09:36:45.509Z,1000.74
2018-12-19T09:37:45.494Z,1000.73
2018-12-19T09:38:45.466Z,1000.74
2018-12-19T09:39:45.470Z,1000.73
2018-12-19T09:40:45.466Z,1000.74
2018-12-19T09:41:45.438Z,1000.74
2018-12-19T09:42:45.435Z,1000.74
2018-12-19T09:43:45.422Z,1000.73
2018-12-19T09:44:45.406Z,1000.72
2018-12-19T09:45:45.394Z,1000.71
2018-12-19T09:46:45.377Z,1000.74
2018-12-19T09:47:45.378Z,1000.73
2018-12-19T09:48:45.357Z,1000.71
2018-12-19T09:49:45.360Z,1000.70
2018-12-19T09:50:45.353Z,1000.74
2018-12-19T09:51:45.326Z,1000.76
2018-12-19T09:52:45.309Z,1000.75
2018-12-19T09:53:45.302Z,1000.77
2018-12-19T09:54:45.288Z,1000.73
2018-12-19T09:55:45.277Z,1000.75
2018-12-19T09:56:45.297Z,1000.73
2018-12-19T09:57:45.256Z,1000.75
2018-12-19T09:58:45.246Z,1000.75
2018-12-19T09:59:45.233Z,1000.74
2018-12-19T10:00:45.223Z,1000.74
2018-12-19T10:01:45.218Z,1000.76
2018-12-19T10:02:45.219Z,1000.77
2018-12-19T10:03:45.198Z,1000.77
2018-12-19T10:04:45.173Z,1000.74
2018-12-19T10:05:45.162Z,1000.77
2018-12-19T10:06:45.161Z,1000.72
2018-12-19T10:07:45.145Z,1000.73
2018-12-19T10:08:45.211Z,1000.72
2018-12-19T10:09:45.122Z,1000.74
2018-12-19T10:10:45.109Z,1000.73
2018-12-19T10:11:45.098Z,1000.75
2018-12-19T10:12:45.090Z,1000.72
2018-12-19T10:13:45.100Z,1000.71
2018-12-19T10:14:45.079Z,1000.70
2018-12-19T10:15:45.057Z,1000.69
2018-12-19T10:16:45.045Z,1000.70
2018-12-19T10:17:45.036Z,1000.73
2018-12-19T10:18:45.017Z,1000.69
2018-12-19T10:19:45.025Z,1000.74
2018-12-19T10:20:44.996Z,1000.73
2018-12-19T10:21:44.984Z,1000.75
2018-12-19T10:22:44.981Z,1000.76
2018-12-19T10:23:44.965Z,1000.72
2018-12-19T10:24:44.975Z,1000.71
2018-12-19T10:25:44.946Z,1000.67
2018-12-19T10:26:44.935Z,1000.64
2018-12-19T10:27:44.919Z,1000.66
2018-12-19T10:28:44.933Z,1000.67
2018-12-19T10:29:44.896Z,1000.69
2018-12-19T10:30:44.901Z,1000.62
2018-12-19T10:31:44.877Z,1000.67
2018-12-19T10:32:44.865Z,1000.66
2018-12-19T10:33:44.857Z,1000.68
2018-12-19T10:34:44.841Z,1000.66
2018-12-19T10:35:44.829Z,1000.71
2018-12-19T10:36:44.830Z,1000.67
2018-12-19T10:37:44.805Z,1000.62
2018-12-19T10:38:44.798Z,1000.69
2018-12-19T10:39:44.785Z,1000.62
2018-12-19T10:40:45.677Z,1000.67
2018-12-19T10:41:44.761Z,1000.72
2018-12-19T10:42:44.758Z,1000.68
2018-12-19T10:43:44.736Z,1000.69
2018-12-19T10:44:44.729Z,1000.66
2018-12-19T10:45:44.716Z,1000.63
2018-12-19T10:46:44.705Z,1000.73
2018-12-19T10:47:44.701Z,1000.67
2018-12-19T10:48:44.708Z,1000.72
2018-12-19T10:49:44.671Z,1000.73
2018-12-19T10:50:44.664Z,1000.68
2018-12-19T10:51:44.649Z,1000.69
2018-12-19T10:52:44.649Z,1000.69
2018-12-19T10:53:44.637Z,1000.70
2018-12-19T10:54:44.625Z,1000.71
2018-12-19T10:55:44.602Z,1000.71
2018-12-19T10:56:44.596Z,1000.67
2018-12-19T10:57:44.581Z,1000.67
2018-12-19T10:58:44.570Z,1000.65
2018-12-19T10:59:44.562Z,1000.67
2018-12-19T11:00:44.569Z,1000.71
2018-12-19T11:01:44.538Z,1000.68
2018-12-19T11:02:44.524Z,1000.66
2018-12-19T11:03:44.514Z,1000.71
2018-12-19T11:04:44.505Z,1000.70
2018-12-19T11:05:44.497Z,1000.73
2018-12-19T11:06:44.497Z,1000.66
2018-12-19T11:07:44.480Z,1000.64
2018-12-19T11:08:44.457Z,1000.70
2018-12-19T11:09:44.445Z,1000.75
2018-12-19T11:10:45.182Z,1000.75
2018-12-19T11:11:44.425Z,1000.75
2018-12-19T11:12:44.437Z,1000.70
2018-12-19T11:13:44.402Z,1000.76
2018-12-19T11:14:44.390Z,1000.68
2018-12-19T11:15:44.373Z,1000.74
2018-12-19T11:16:44.859Z,1000.70
2018-12-19T11:17:44.358Z,1000.69
2018-12-19T11:18:44.357Z,1000.72
2018-12-19T11:19:44.404Z,1000.70
2018-12-19T11:20:44.322Z,1000.70
2018-12-19T11:21:44.314Z,1000.69
2018-12-19T11:22:44.311Z,1000.68
2018-12-19T11:23:44.285Z,1000.72
2018-12-19T11:24:44.296Z,1000.66
2018-12-19T11:25:44.268Z,1000.68
2018-12-19T11:26:44.252Z,1000.69
2018-12-19T11:27:44.241Z,1000.66
2018-12-19T11:28:44.238Z,1000.59
2018-12-19T11:29:44.222Z,1000.56
2018-12-19T11:30:44.225Z,1000.57
2018-12-19T11:31:44.230Z,1000.59
2018-12-19T11:32:44.201Z,1000.54
2018-12-19T11:33:44.177Z,1000.49
2018-12-19T11:34:44.165Z,1000.49
2018-12-19T11:35:44.170Z,1000.48
2018-12-19T11:36:44.158Z,1000.46
2018-12-19T11:37:44.135Z,1000.46
2018-12-19T11:38:44.121Z,1000.54
2018-12-19T11:39:44.109Z,1000.45
2018-12-19T11:40:44.101Z,1000.48
2018-12-19T11:41:44.100Z,1000.47
2018-12-19T11:42:44.073Z,1000.48
2018-12-19T11:43:44.061Z,1000.46
2018-12-19T11:44:44.053Z,1000.50
2018-12-19T11:45:44.041Z,1000.47
2018-12-19T11:46:44.025Z,1000.46
2018-12-19T11:47:44.034Z,1000.40
2018-12-19T11:48:44.013Z,1000.41
2018-12-19T11:49:44.002Z,1000.41
2018-12-19T11:50:43.985Z,1000.42
2018-12-19T11:51:43.975Z,1000.35
2018-12-19T11:52:43.964Z,1000.43
2018-12-19T11:53:43.961Z,1000.38
2018-12-19T11:54:43.940Z,1000.39
2018-12-19T11:55:43.927Z,1000.43
2018-12-19T11:56:43.918Z,1000.41
2018-12-19T11:57:43.941Z,1000.44
2018-12-19T11:58:43.914Z,1000.39
2018-12-19T11:59:43.882Z,1000.37
2018-12-19T12:00:43.873Z,1000.33
2018-12-19T12:01:43.858Z,1000.39
2018-12-19T12:02:43.861Z,1000.36
2018-12-19T12:03:43.837Z,1000.33
2018-12-19T12:04:43.853Z,1000.32
2018-12-19T12:05:43.818Z,1000.31
2018-12-19T12:06:43.805Z,1000.38
2018-12-19T12:07:43.805Z,1000.30
2018-12-19T12:08:43.781Z,1000.25
2018-12-19T12:09:43.769Z,1000.30
2018-12-19T12:10:43.781Z,1000.33
2018-12-19T12:11:45.798Z,1000.29
2018-12-19T12:12:43.743Z,1000.23
2018-12-19T12:13:43.729Z,1000.25
2018-12-19T12:14:43.713Z,1000.22
2018-12-19T12:15:43.701Z,1000.23
2018-12-19T12:16:43.707Z,1000.26
2018-12-19T12:17:43.679Z,1000.22
2018-12-19T12:18:43.669Z,1000.22
2018-12-19T12:19:43.678Z,1000.17